createdAt,value
2022-08-01T00:01:21.911Z,5.10
2022-08-01T00:03:52.648Z,4.30
2022-08-01T00:06:22.502Z,4.93
2022-08-01T00:08:54.284Z,5.10
2022-08-01T00:11:24.122Z,4.70
2022-08-01T00:13:53.844Z,5.07
2022-08-01T00:16:26.329Z,4.30
2022-08-01T00:18:56.554Z,4.07
2022-08-01T00:21:26.209Z,5.00
2022-08-01T00:23:55.828Z,3.47
2022-08-01T00:26:25.545Z,4.30
2022-08-01T00:28:55.299Z,4.17
2022-08-01T00:31:27.526Z,3.60
2022-08-01T00:33:57.566Z,4.23
2022-08-01T00:36:27.205Z,4.27
2022-08-01T00:38:56.920Z,4.93
2022-08-01T00:41:26.708Z,5.07
2022-08-01T00:43:56.359Z,5.20
2022-08-01T00:46:28.624Z,5.50
2022-08-01T00:48:58.530Z,5.23
2022-08-01T00:51:29.126Z,5.40
2022-08-01T00:53:59.140Z,5.93
2022-08-01T00:56:32.061Z,5.30
2022-08-01T00:59:02.178Z,5.90
2022-08-01T01:01:39.981Z,5.30
2022-08-01T01:04:09.804Z,5.60
2022-08-01T01:06:51.447Z,6.37
2022-08-01T01:09:38.811Z,5.97
2022-08-01T01:12:19.427Z,6.10
2022-08-01T01:14:56.822Z,6.60
2022-08-01T01:17:49.749Z,7.40
2022-08-01T01:20:23.226Z,6.30
2022-08-01T01:23:14.140Z,7.53
2022-08-01T01:25:54.986Z,6.33
2022-08-01T01:28:35.007Z,6.73
2022-08-01T01:31:10.990Z,7.03
2022-08-01T01:33:47.295Z,7.50
2022-08-01T01:36:20.513Z,8.37
2022-08-01T01:38:51.706Z,7.93
2022-08-01T01:41:22.536Z,7.63
2022-08-01T01:43:54.300Z,7.60
2022-08-01T01:46:29.898Z,8.80
2022-08-01T01:49:00.423Z,8.47
2022-08-01T01:51:32.177Z,9.33
2022-08-01T01:54:04.835Z,8.90
2022-08-01T01:56:35.019Z,8.97
2022-08-01T01:59:07.705Z,9.53
2022-08-01T02:02:05.236Z,9.60
2022-08-01T02:04:31.900Z,9.67
2022-08-01T02:07:02.685Z,9.43
2022-08-01T02:09:34.297Z,9.53
2022-08-01T02:12:08.178Z,9.30
2022-08-01T02:14:41.924Z,9.10
2022-08-01T02:17:16.092Z,9.83
2022-08-01T02:19:46.227Z,10.00
2022-08-01T02:22:21.930Z,9.17
2022-08-01T02:24:55.923Z,8.60
2022-08-01T02:27:35.073Z,9.30
2022-08-01T02:30:08.434Z,9.20
2022-08-01T02:32:46.627Z,9.10
2022-08-01T02:35:21.773Z,9.10
2022-08-01T02:37:52.757Z,8.30
2022-08-01T02:40:23.428Z,7.70
2022-08-01T02:42:56.485Z,8.07
2022-08-01T02:45:29.676Z,8.13
2022-08-01T02:48:08.691Z,7.97
2022-08-01T02:50:39.901Z,8.50
2022-08-01T02:53:11.329Z,7.77
2022-08-01T02:55:43.504Z,7.40
2022-08-01T02:58:16.048Z,6.87
2022-08-01T03:00:48.738Z,7.90
2022-08-01T03:03:21.753Z,7.40
2022-08-01T03:05:52.416Z,7.60
2022-08-01T03:08:23.984Z,7.23
2022-08-01T03:10:55.994Z,7.73
2022-08-01T03:13:26.739Z,6.90
2022-08-01T03:15:59.570Z,6.90
2022-08-01T03:18:32.699Z,7.43
2022-08-01T03:21:03.598Z,7.90
2022-08-01T03:23:38.085Z,6.80
2022-08-01T03:26:09.649Z,7.50
2022-08-01T03:28:42.357Z,6.27
2022-08-01T03:31:13.182Z,7.33
2022-08-01T03:33:45.472Z,6.57
2022-08-01T03:36:16.686Z,6.37
2022-08-01T03:38:48.768Z,6.47
2022-08-01T03:41:24.755Z,7.03
2022-08-01T03:43:59.527Z,6.90
2022-08-01T03:46:35.384Z,7.20
2022-08-01T03:49:15.077Z,7.13
2022-08-01T03:51:46.126Z,7.33
2022-08-01T03:54:17.196Z,6.90
2022-08-01T03:56:49.827Z,5.97
2022-08-01T03:59:20.535Z,6.87
2022-08-01T04:01:51.454Z,6.67
2022-08-01T04:04:24.016Z,6.37
2022-08-01T04:06:55.091Z,5.87
2022-08-01T04:09:25.388Z,5.20
2022-08-01T04:11:55.085Z,4.07
2022-08-01T04:14:24.942Z,4.90
2022-08-01T04:16:54.750Z,4.67
2022-08-01T04:19:27.200Z,4.37
2022-08-01T04:21:57.721Z,3.97
2022-08-01T04:24:31.051Z,3.93
2022-08-01T04:27:03.971Z,3.77
2022-08-01T04:29:35.542Z,3.83
2022-08-01T04:32:06.046Z,4.47
2022-08-01T04:34:41.028Z,4.43
2022-08-01T04:37:13.464Z,4.43
2022-08-01T04:39:50.392Z,3.93
2022-08-01T04:42:26.769Z,4.90
2022-08-01T04:45:00.804Z,4.53
2022-08-01T04:47:30.859Z,4.57
2022-08-01T04:50:03.457Z,4.40
2022-08-01T04:52:37.018Z,5.13
2022-08-01T04:55:08.404Z,5.50
2022-08-01T04:57:41.161Z,5.20
2022-08-01T05:00:12.265Z,5.30
2022-08-01T05:02:42.136Z,4.70
2022-08-01T05:05:15.910Z,4.70
2022-08-01T05:07:45.842Z,4.97
2022-08-01T05:10:15.725Z,4.37
2022-08-01T05:12:45.373Z,5.00
2022-08-01T05:15:15.782Z,5.00
2022-08-01T05:17:45.908Z,4.23
2022-08-01T05:20:18.160Z,5.00
2022-08-01T05:22:48.125Z,4.30
2022-08-01T05:25:20.394Z,4.70
2022-08-01T05:27:58.166Z,4.70
2022-08-01T05:30:27.855Z,4.40
2022-08-01T05:32:57.620Z,4.50
2022-08-01T05:35:48.165Z,4.73
2022-08-01T05:38:18.801Z,4.50
2022-08-01T05:40:49.624Z,4.90
2022-08-01T05:43:20.500Z,4.70
2022-08-01T05:45:52.043Z,4.87
2022-08-01T05:48:22.743Z,4.07
2022-08-01T05:50:58.737Z,4.50
2022-08-01T05:53:28.933Z,4.40
2022-08-01T05:55:59.661Z,4.30
2022-08-01T05:58:30.377Z,4.20
2022-08-01T06:01:00.156Z,4.90
2022-08-01T06:03:32.258Z,5.00
2022-08-01T06:06:05.985Z,4.37
2022-08-01T06:08:35.741Z,4.60
2022-08-01T06:11:07.163Z,4.70
2022-08-01T06:13:44.904Z,4.40
2022-08-01T06:16:18.148Z,4.40
2022-08-01T06:18:52.792Z,2.20
2022-08-01T06:21:29.312Z,1.60
2022-08-01T06:23:59.046Z,1.43
2022-08-01T06:26:29.771Z,2.07
2022-08-01T06:29:00.636Z,1.50
2022-08-01T06:31:33.955Z,1.80
2022-08-01T06:34:05.938Z,1.37
2022-08-01T06:36:39.417Z,1.80
2022-08-01T06:39:09.185Z,1.87
2022-08-01T06:41:38.918Z,2.10
2022-08-01T06:44:08.716Z,2.67
2022-08-01T06:46:39.398Z,2.20
2022-08-01T06:49:09.286Z,2.50
2022-08-01T06:51:41.740Z,2.17
2022-08-01T06:54:12.459Z,2.30
2022-08-01T06:56:42.145Z,2.40
2022-08-01T06:59:11.989Z,2.50
2022-08-01T07:01:42.163Z,1.87
2022-08-01T07:04:11.869Z,2.53
2022-08-01T07:06:44.198Z,2.93
2022-08-01T07:09:15.915Z,3.10
2022-08-01T07:11:45.672Z,2.57
2022-08-01T07:14:15.342Z,3.00
2022-08-01T07:16:45.120Z,2.80
2022-08-01T07:19:15.288Z,2.80
2022-08-01T07:21:50.072Z,3.10
2022-08-01T07:24:21.653Z,2.70
2022-08-01T07:26:55.108Z,2.60
2022-08-01T07:29:27.054Z,3.07
2022-08-01T07:31:59.486Z,2.30
2022-08-01T07:34:30.303Z,3.00
2022-08-01T07:37:02.661Z,3.07
2022-08-01T07:39:32.370Z,3.07
2022-08-01T07:42:06.263Z,2.53
2022-08-01T07:44:38.052Z,2.90
2022-08-01T07:47:08.724Z,2.53
2022-08-01T07:49:41.288Z,2.70
2022-08-01T07:52:15.158Z,2.80
2022-08-01T07:54:49.204Z,2.20
2022-08-01T07:57:22.628Z,2.13
2022-08-01T07:59:53.480Z,2.10
2022-08-01T08:02:24.265Z,2.30
2022-08-01T08:04:54.029Z,1.73
2022-08-01T08:07:27.389Z,1.30
2022-08-01T08:09:58.156Z,1.20
2022-08-01T08:12:29.955Z,1.23
2022-08-01T08:15:01.480Z,1.17
2022-08-01T08:17:35.693Z,1.20
2022-08-01T08:20:09.769Z,1.57
2022-08-01T08:22:43.413Z,1.37
2022-08-01T08:25:14.252Z,1.40
2022-08-01T08:27:46.047Z,1.60
2022-08-01T08:30:19.599Z,1.80
2022-08-01T08:32:52.482Z,1.60
2022-08-01T08:35:40.561Z,1.63
2022-08-01T08:38:17.503Z,1.33
2022-08-01T08:40:49.816Z,1.60
2022-08-01T08:43:20.497Z,1.50
2022-08-01T08:45:59.547Z,2.33
2022-08-01T08:48:32.162Z,1.43
2022-08-01T08:51:04.266Z,1.63
2022-08-01T08:53:39.612Z,1.57
2022-08-01T08:56:12.020Z,1.43
2022-08-01T08:58:42.153Z,1.53
2022-08-01T09:01:13.575Z,1.50
2022-08-01T09:03:44.135Z,1.20
2022-08-01T09:06:15.366Z,0.90
2022-08-01T09:08:48.700Z,0.83
2022-08-01T09:11:22.953Z,0.90
2022-08-01T09:14:11.603Z,1.20
2022-08-01T09:16:48.852Z,1.20
2022-08-01T09:19:39.487Z,1.10
2022-08-01T09:22:13.147Z,0.80
2022-08-01T09:25:01.615Z,0.70
2022-08-01T09:27:36.248Z,1.00
2022-08-01T09:30:13.173Z,1.20
2022-08-01T09:32:58.205Z,1.00
2022-08-01T09:35:36.420Z,1.10
2022-08-01T09:38:19.097Z,1.10
2022-08-01T09:40:58.137Z,1.00
2022-08-01T09:43:31.671Z,1.30
2022-08-01T09:46:03.703Z,0.93
2022-08-01T09:48:35.490Z,1.10
2022-08-01T09:51:09.765Z,1.10
2022-08-01T09:53:51.199Z,1.20
2022-08-01T09:56:26.870Z,1.10
2022-08-01T09:59:02.389Z,1.30
2022-08-01T10:01:47.169Z,1.77
2022-08-01T10:04:20.837Z,1.10
2022-08-01T10:06:55.309Z,1.10
2022-08-01T10:09:39.643Z,1.43
2022-08-01T10:12:17.477Z,1.27
2022-08-01T10:14:50.787Z,1.50
2022-08-01T10:17:23.935Z,1.10
2022-08-01T10:20:30.648Z,1.20
2022-08-01T10:23:06.170Z,1.50
2022-08-01T10:25:47.383Z,2.27
2022-08-01T10:28:24.057Z,2.00
2022-08-01T10:30:54.357Z,1.87
2022-08-01T10:33:51.171Z,2.10
2022-08-01T10:36:18.076Z,2.17
2022-08-01T10:38:49.690Z,2.77
2022-08-01T10:41:22.358Z,2.60
2022-08-01T10:43:55.811Z,2.10
2022-08-01T10:46:26.307Z,2.13
2022-08-01T10:49:04.687Z,2.77
2022-08-01T10:51:52.656Z,2.70
2022-08-01T10:54:28.632Z,2.53
2022-08-01T10:57:03.827Z,3.23
2022-08-01T10:59:50.802Z,3.30
2022-08-01T11:02:32.565Z,3.90
2022-08-01T11:05:06.739Z,3.33
2022-08-01T11:07:47.878Z,3.07
2022-08-01T11:10:26.786Z,3.03
2022-08-01T11:13:00.037Z,3.63
2022-08-01T11:15:33.557Z,3.80
2022-08-01T11:18:06.591Z,3.80
2022-08-01T11:20:41.920Z,4.30
2022-08-01T11:23:23.500Z,4.13
2022-08-01T11:26:14.142Z,4.10
2022-08-01T11:29:17.984Z,3.70
2022-08-01T11:31:43.165Z,4.17
2022-08-01T11:34:15.590Z,3.93
2022-08-01T11:37:03.247Z,3.80
2022-08-01T11:39:38.261Z,4.30
2022-08-01T11:42:23.670Z,3.00
2022-08-01T11:44:58.362Z,3.00
2022-08-01T11:47:50.933Z,2.20
2022-08-01T11:50:40.000Z,2.40
2022-08-01T11:53:12.658Z,2.00
2022-08-01T11:55:51.527Z,2.53
2022-08-01T11:58:29.416Z,2.57
2022-08-01T12:01:03.039Z,3.00
2022-08-01T12:03:36.720Z,3.30
2022-08-01T12:06:07.822Z,2.10
2022-08-01T12:08:39.746Z,3.33
2022-08-01T12:11:09.701Z,2.50
2022-08-01T12:13:45.897Z,2.90
2022-08-01T12:16:16.185Z,2.90
2022-08-01T12:18:49.747Z,2.80
2022-08-01T12:21:20.377Z,2.30
2022-08-01T12:24:04.051Z,3.13
2022-08-01T12:26:43.917Z,3.70
2022-08-01T12:29:13.634Z,2.80
2022-08-01T12:31:44.526Z,3.30
2022-08-01T12:34:35.162Z,2.93
2022-08-01T12:37:07.213Z,3.47
2022-08-01T12:39:40.066Z,3.00
2022-08-01T12:42:11.924Z,2.40
2022-08-01T12:44:42.738Z,3.27
2022-08-01T12:47:12.813Z,3.00
2022-08-01T12:49:48.052Z,2.53
2022-08-01T12:52:22.554Z,3.50
2022-08-01T12:55:09.681Z,2.80
2022-08-01T12:57:45.653Z,2.73
2022-08-01T13:00:20.896Z,2.60
2022-08-01T13:02:52.252Z,2.40
2022-08-01T13:05:28.654Z,2.63
2022-08-01T13:07:59.370Z,2.77
2022-08-01T13:10:36.872Z,2.67
2022-08-01T13:13:07.927Z,3.73
2022-08-01T13:15:41.766Z,2.80
2022-08-01T13:18:29.832Z,2.80
2022-08-01T13:21:17.637Z,2.47
2022-08-01T13:24:06.274Z,2.37
2022-08-01T13:26:44.804Z,3.40
2022-08-01T13:29:17.886Z,2.70
2022-08-01T13:31:49.706Z,2.20
2022-08-01T13:34:21.038Z,2.30
2022-08-01T13:36:55.316Z,2.30
2022-08-01T13:39:38.137Z,2.00
2022-08-01T13:42:10.426Z,2.50
2022-08-01T13:44:42.314Z,2.60
2022-08-01T13:47:15.117Z,2.57
2022-08-01T13:49:46.962Z,2.37
2022-08-01T13:52:20.418Z,2.50
2022-08-01T13:54:55.121Z,2.67
2022-08-01T13:57:25.913Z,2.70
2022-08-01T14:00:11.228Z,2.83
2022-08-01T14:02:44.619Z,2.17
2022-08-01T14:05:15.390Z,2.03
2022-08-01T14:07:48.965Z,3.03
2022-08-01T14:10:20.662Z,2.30
2022-08-01T14:12:51.952Z,2.10
2022-08-01T14:15:38.215Z,2.37
2022-08-01T14:18:11.149Z,3.10
2022-08-01T14:20:42.670Z,2.83
2022-08-01T14:23:16.140Z,3.00
2022-08-01T14:26:03.476Z,2.40
2022-08-01T14:28:39.565Z,2.57
2022-08-01T14:31:09.863Z,2.67
2022-08-01T14:33:42.280Z,2.77
2022-08-01T14:36:29.534Z,3.70
2022-08-01T14:39:04.928Z,2.80
2022-08-01T14:41:36.588Z,2.10
2022-08-01T14:44:06.854Z,2.43
2022-08-01T14:46:36.646Z,1.90
2022-08-01T14:49:12.445Z,1.67
2022-08-01T14:51:42.422Z,2.10
2022-08-01T14:54:14.839Z,2.40
2022-08-01T14:56:46.630Z,1.90
2022-08-01T14:59:21.855Z,2.83
2022-08-01T15:01:51.839Z,2.70
2022-08-01T15:04:21.632Z,2.57
2022-08-01T15:06:51.450Z,3.23
2022-08-01T15:09:24.238Z,2.40
2022-08-01T15:11:54.055Z,2.47
2022-08-01T15:14:36.317Z,2.20
2022-08-01T15:17:07.591Z,2.20
2022-08-01T15:19:41.919Z,2.60
2022-08-01T15:22:13.082Z,2.93
2022-08-01T15:24:46.965Z,2.20
2022-08-01T15:27:16.775Z,2.30
2022-08-01T15:29:46.593Z,2.13
2022-08-01T15:32:17.958Z,2.23
2022-08-01T15:34:48.118Z,3.10
2022-08-01T15:37:19.012Z,2.83
2022-08-01T15:39:51.449Z,2.07
2022-08-01T15:42:27.027Z,2.23
2022-08-01T15:44:57.240Z,2.50
2022-08-01T15:47:26.940Z,1.83
2022-08-01T15:50:00.476Z,2.70
2022-08-01T15:52:31.616Z,2.67
2022-08-01T15:55:04.409Z,1.80
2022-08-01T15:57:35.176Z,2.30
2022-08-01T16:00:05.210Z,2.80
2022-08-01T16:02:42.581Z,3.23
2022-08-01T16:05:13.620Z,2.70
2022-08-01T16:08:01.766Z,3.73
2022-08-01T16:10:34.581Z,3.00
2022-08-01T16:13:07.229Z,3.20
2022-08-01T16:15:39.348Z,2.83
2022-08-01T16:18:16.248Z,4.63
2022-08-01T16:20:46.412Z,3.10
2022-08-01T16:23:20.390Z,3.23
2022-08-01T16:25:52.756Z,3.83
2022-08-01T16:28:23.586Z,2.80
2022-08-01T16:31:14.943Z,2.93
2022-08-01T16:33:53.055Z,2.70
2022-08-01T16:36:25.262Z,2.67
2022-08-01T16:38:55.216Z,3.07
2022-08-01T16:41:27.534Z,2.73
2022-08-01T16:43:57.392Z,2.93
2022-08-01T16:46:27.659Z,3.30
2022-08-01T16:48:58.562Z,2.70
2022-08-01T16:51:28.360Z,2.77
2022-08-01T16:54:02.861Z,2.97
2022-08-01T16:56:35.880Z,2.97
2022-08-01T16:59:06.658Z,3.30
2022-08-01T17:01:58.982Z,2.50
2022-08-01T17:04:30.461Z,2.20
2022-08-01T17:07:00.886Z,2.13
2022-08-01T17:09:31.731Z,2.20
2022-08-01T17:12:06.829Z,2.50
2022-08-01T17:14:40.015Z,2.83
2022-08-01T17:17:11.114Z,2.50
2022-08-01T17:19:42.177Z,2.87
2022-08-01T17:22:13.205Z,2.30
2022-08-01T17:24:43.973Z,2.33
2022-08-01T17:27:17.773Z,2.53
2022-08-01T17:29:48.889Z,2.63
2022-08-01T17:32:23.171Z,2.47
2022-08-01T17:34:53.897Z,2.20
2022-08-01T17:37:25.627Z,2.40
2022-08-01T17:39:55.475Z,2.77
2022-08-01T17:42:30.301Z,2.10
2022-08-01T17:45:01.078Z,2.17
2022-08-01T17:47:50.222Z,1.93
2022-08-01T17:50:21.448Z,2.60
2022-08-01T17:52:53.209Z,1.93
2022-08-01T17:55:55.516Z,2.20
2022-08-01T17:58:49.132Z,2.03
2022-08-01T18:01:10.040Z,2.07
2022-08-01T18:03:41.937Z,2.17
2022-08-01T18:06:13.759Z,1.90
2022-08-01T18:08:47.499Z,2.10
2022-08-01T18:11:19.429Z,2.30
2022-08-01T18:13:53.479Z,1.80
2022-08-01T18:16:25.239Z,2.20
2022-08-01T18:18:56.135Z,2.03
2022-08-01T18:21:26.986Z,1.60
2022-08-01T18:23:57.744Z,2.87
2022-08-01T18:26:27.670Z,2.30
2022-08-01T18:29:00.001Z,2.00
2022-08-01T18:31:30.759Z,2.03
2022-08-01T18:34:01.565Z,1.90
2022-08-01T18:36:32.929Z,2.40
2022-08-01T18:39:10.042Z,2.10
2022-08-01T18:41:43.241Z,2.00
2022-08-01T18:44:19.963Z,1.70
2022-08-01T18:46:55.855Z,1.63
2022-08-01T18:49:32.538Z,2.67
2022-08-01T21:22:00.219Z,2.10
2022-08-01T21:24:40.481Z,2.73
2022-08-01T21:27:11.015Z,3.07
2022-08-01T21:29:42.057Z,2.40
2022-08-01T21:32:16.130Z,3.50
2022-08-01T21:34:50.274Z,2.10
2022-08-01T21:37:25.861Z,2.87
2022-08-01T21:39:56.648Z,2.60
2022-08-01T21:42:29.415Z,3.70
2022-08-01T21:45:05.143Z,3.60
2022-08-01T21:47:34.865Z,2.50
2022-08-01T21:50:05.453Z,2.63
2022-08-01T21:52:46.954Z,3.40
2022-08-01T21:55:34.883Z,3.10
2022-08-01T21:58:26.468Z,2.70
2022-08-01T22:01:02.941Z,2.97
2022-08-01T22:03:38.425Z,3.20
2022-08-01T22:06:09.829Z,2.73
2022-08-01T22:08:51.455Z,2.50
2022-08-01T22:11:24.198Z,2.77
2022-08-01T22:13:57.633Z,3.13
2022-08-01T22:16:29.333Z,3.10
2022-08-01T22:19:00.057Z,2.90
2022-08-01T22:21:30.197Z,3.13
2022-08-01T22:24:03.582Z,2.77
2022-08-01T22:26:35.654Z,2.83
2022-08-01T22:29:05.712Z,3.27
2022-08-01T22:31:38.175Z,2.37
2022-08-01T22:34:09.417Z,3.10
2022-08-01T22:36:39.349Z,2.97
2022-08-01T22:39:11.713Z,3.27
2022-08-01T22:42:01.254Z,3.27
2022-08-01T22:44:37.643Z,3.17
2022-08-01T22:47:14.132Z,2.80
2022-08-01T22:49:57.105Z,3.37
2022-08-01T22:52:31.285Z,3.13
2022-08-01T22:55:07.693Z,2.87
2022-08-01T22:57:50.152Z,2.77
2022-08-01T23:00:21.197Z,3.20
2022-08-01T23:02:56.385Z,3.97
2022-08-01T23:05:28.239Z,3.17
2022-08-01T23:07:59.460Z,2.87
2022-08-01T23:10:31.724Z,2.60
2022-08-01T23:13:03.818Z,2.87
2022-08-01T23:15:34.619Z,2.93
2022-08-01T23:18:05.682Z,3.83
2022-08-01T23:20:37.608Z,3.20
2022-08-01T23:23:07.900Z,2.80
2022-08-01T23:25:41.568Z,2.87
2022-08-01T23:28:11.747Z,3.40
2022-08-01T23:30:41.772Z,3.37
2022-08-01T23:33:11.552Z,2.60
2022-08-01T23:35:45.176Z,2.90
2022-08-01T23:38:16.107Z,2.77
2022-08-01T23:40:50.123Z,2.63
2022-08-01T23:43:20.083Z,3.20
2022-08-01T23:46:04.171Z,3.80
2022-08-01T23:48:36.186Z,3.70
2022-08-01T23:51:06.714Z,2.87
2022-08-01T23:53:38.400Z,2.30
2022-08-01T23:56:11.077Z,3.30
2022-08-01T23:58:43.632Z,3.20
